Flight Track Log - Related Links

Times and Time Zones

All times are in EDT time to prevent confusion due to time zone crossing. See the FSR411 flight status page for this flight to view local times or setup timezone preferences in your user account.

Time Position Orientation Groundspeed Altitude Reporting Facility
EDT Latitude Longitude Course Direction KTS MPH feet Rate Location/Type
Wed 02:41:57 PM 40.0036 -88.2017 73° East 272 313 4,300  Level Chicago Center
Wed 02:42:59 PM 40.0286 -88.0961 73° East 306 352 7,100 3,000 Climbing Chicago Center
Wed 02:44:01 PM 40.0547 -87.9764 74° East 334 384 10,500 3,387 Climbing Chicago Center
Wed 02:45:03 PM 40.0817 -87.8564 74° East 345 397 14,100 3,145 Climbing Chicago Center
Wed 02:46:05 PM 40.1128 -87.7164 74° East 384 442 17,000 2,758 Climbing Chicago Center
Wed 02:47:07 PM 40.1447 -87.5692 74° East 421 484 19,800 2,565 Climbing Chicago Center
Wed 02:48:09 PM 40.1850 -87.3864 74° East 437 503 22,300 1,935 Climbing Chicago Center
Wed 02:49:11 PM 40.2178 -87.2300 75° East 451 519 23,800 1,452 Climbing Chicago Center
Wed 02:50:13 PM 40.2519 -87.0706 74° East 458 527 25,300 1,488 Climbing Chicago Center
Wed 02:51:16 PM 40.2875 -86.9017 75° East 476 548 26,900 1,536 Climbing Chicago Center
Wed 02:52:18 PM 40.3275 -86.7061 75° East 499 574 28,500 1,016 Climbing Chicago Center
Wed 02:53:20 PM 40.3633 -86.5275 75° East 507 583 29,000 435 Climbing Chicago Center
Wed 02:54:22 PM 40.4006 -86.3511 74° East 506 582 29,400 968 Climbing Chicago Center
Wed 02:55:24 PM 40.4353 -86.1733 76° East 505 581 31,000 1,935 Climbing Chicago Center
Wed 02:56:26 PM 40.4772 -85.9672 75° East 491 565 33,400 1,597 Climbing Chicago Center
Wed 02:57:28 PM 40.5114 -85.7969 75° East 485 558 34,300 1,161 Climbing Chicago Center
Wed 02:58:30 PM 40.5447 -85.6247 76° East 489 563 35,800 1,548 Climbing Chicago Center
Wed 02:59:32 PM 40.5772 -85.4572 76° East 482 555 37,500 1,333 Climbing Chicago Center
Wed 03:00:36 PM 40.6097 -85.2933 75° East 472 543 38,600 1,000 Climbing Chicago Center
Wed 03:01:38 PM 40.6467 -85.0978 76° East 464 534 39,600 706 Climbing Chicago Center
Wed 03:02:52 PM 40.6839 -84.8981 76° East 470 541 40,200 441 Climbing Chicago Center
Wed 03:03:54 PM 40.7161 -84.7272 76° East 479 551 40,600 381 Climbing Chicago Center
Wed 03:04:58 PM 40.7550 -84.5219 76° East 486 559 41,000 190 Climbing Indianapolis Center
Wed 03:06:00 PM 40.7883 -84.3422 76° East 496 571 41,000  Level Indianapolis Center
Wed 03:07:02 PM 40.8211 -84.1628 76° East 497 572 41,000  Level Indianapolis Center
Wed 03:08:04 PM 40.8536 -83.9836 76° East 496 571 41,000  Level Indianapolis Center
Wed 03:09:06 PM 40.8853 -83.8069 77° East 490 564 41,000  Level Indianapolis Center
Wed 03:10:08 PM 40.9172 -83.6289 77° East 492 566 41,000  Level Indianapolis Center
Wed 03:11:10 PM 40.9503 -83.4372 77° East 491 565 41,000  Level Indianapolis Center
Wed 03:12:12 PM 40.9808 -83.2558 77° East 498 573 41,000  Level Indianapolis Center
Wed 03:13:14 PM 41.0128 -83.0786 77° East 494 568 41,000  Level Indianapolis Center
Wed 03:14:16 PM 41.0431 -82.9011 77° East 492 566 41,000  Level Indianapolis Center
Wed 03:15:20 PM 41.0753 -82.7014 78° East 484 557 41,000  Level Cleveland Center
Wed 03:16:19 PM 41.1056 -82.5258 77° East 484 557 41,000  Level Cleveland Center
Wed 03:17:20 PM 41.1308 -82.3694 78° East 478 550 41,000  Level Cleveland Center
Wed 03:18:20 PM 41.1586 -82.1936 78° East 486 559 41,000  Level Cleveland Center
Wed 03:19:20 PM 41.1944 -81.9986 76° East 485 558 41,000  Level Cleveland Center
Wed 03:20:20 PM 41.2214 -81.8253 78° East 485 558 41,000  Level Cleveland Center
Wed 03:21:20 PM 41.2483 -81.6519 78° East 485 558 41,000  Level Cleveland Center
Wed 03:22:20 PM 41.2769 -81.4756 78° East 485 558 41,000  Level Cleveland Center
Wed 03:23:20 PM 41.3031 -81.2989 79° East 485 558 41,000  Level Cleveland Center
Wed 03:24:20 PM 41.3250 -81.1444 79° East 480 552 41,000  Level Cleveland Center
Wed 03:25:20 PM 41.3528 -80.9675 78° East 480 552 41,000  Level Cleveland Center
Wed 03:26:20 PM 41.3781 -80.7961 79° East 480 552 41,000  Level Cleveland Center
Wed 03:27:20 PM 41.4056 -80.6219 78° East 486 559 41,000  Level Cleveland Center
Wed 03:28:20 PM 41.4325 -80.4419 79° East 486 559 41,000  Level Cleveland Center
Wed 03:29:20 PM 41.4614 -80.2478 79° East 486 559 41,000  Level Cleveland Center
Wed 03:30:20 PM 41.4878 -80.0731 79° East 486 559 41,000  Level Cleveland Center
Wed 03:31:20 PM 41.5119 -79.8956 80° East 486 559 41,000  Level Cleveland Center
Wed 03:32:20 PM 41.5378 -79.7178 79° East 486 559 41,000  Level Cleveland Center
Wed 03:33:20 PM 41.5614 -79.5397 80° East 486 559 41,000  Level Cleveland Center
Wed 03:34:20 PM 41.5844 -79.3617 80° East 486 559 41,000  Level Cleveland Center
Wed 03:35:20 PM 41.6097 -79.1864 79° East 486 559 41,000  Level Cleveland Center
Wed 03:36:20 PM 41.6344 -79.0133 79° East 486 559 41,000  Level Cleveland Center
Wed 03:37:20 PM 41.6569 -78.8350 80° East 486 559 41,000  Level Cleveland Center
Wed 03:38:20 PM 41.6792 -78.6592 80° East 486 559 41,000  Level Cleveland Center
Wed 03:40:18 PM 41.7231 -78.3222 80° East 494 568 41,000  Level New York Center
Wed 03:41:18 PM 41.7469 -78.1414 80° East 494 568 41,000  Level New York Center
Wed 03:42:17 PM 41.7681 -77.9658 81° East 489 563 41,000  Level New York Center
Wed 03:43:18 PM 41.7869 -77.7869 82° East 489 563 41,000  Level New York Center
Wed 03:44:19 PM 41.8100 -77.6083 80° East 484 557 41,000  Level New York Center
Wed 03:45:17 PM 41.8328 -77.4242 81° East 484 557 41,000  Level New York Center
Wed 03:46:18 PM 41.8533 -77.2425 81° East 489 563 41,000  Level New York Center
Wed 03:47:18 PM 41.8733 -77.0633 81° East 489 563 41,000  Level New York Center
Wed 03:48:19 PM 41.8925 -76.8950 81° East 501 577 41,000  Level New York Center
Wed 03:49:19 PM 41.9142 -76.7158 81° East 495 570 41,000  Level New York Center
Wed 03:51:27 PM 41.9608 -76.3186 81° East 492 566 41,000  Level Boston Center
Wed 03:52:27 PM 41.9814 -76.1383 81° East 492 566 41,000  Level Boston Center
Wed 03:53:27 PM 42.0000 -75.9547 82° East 492 566 41,000  Level Boston Center
Wed 03:54:27 PM 42.0181 -75.7714 82° East 492 566 41,000 -550 Level Boston Center
Wed 03:55:27 PM 42.0375 -75.5961 81° East 484 557 39,900 -1,350 Descending Boston Center
Wed 03:56:27 PM 42.0550 -75.4153 83° East 479 551 38,300 -1,650 Descending Boston Center
Wed 03:57:27 PM 42.0719 -75.2342 83° East 479 551 36,600 -1,600 Descending Boston Center
Wed 03:58:27 PM 42.0889 -75.0558 83° East 479 551 35,100 -1,600 Descending Boston Center
Wed 03:59:27 PM 42.1097 -74.8692 81° East 484 557 33,400 -1,700 Descending Boston Center
Wed 04:00:27 PM 42.1281 -74.6825 82° East 495 570 31,700 -1,700 Descending Boston Center
Wed 04:01:27 PM 42.1464 -74.4956 82° East 501 577 30,000 -1,350 Descending Boston Center
Wed 04:02:27 PM 42.1664 -74.2889 82° East 501 577 29,000 -950 Descending Boston Center
Wed 04:03:27 PM 42.1861 -74.1017 82° East 501 577 28,100 -1,200 Descending Boston Center
Wed 04:04:27 PM 42.2033 -73.9114 83° East 501 577 26,600 -1,550 Descending Boston Center
Wed 04:05:27 PM 42.2181 -73.7239 84° East 506 582 25,000 -1,400 Descending Boston Center
Wed 04:06:27 PM 42.2367 -73.5506 82° East 512 589 23,800 -1,400 Descending Boston Center
Wed 04:07:27 PM 42.2528 -73.3628 83° East 507 583 22,200 -1,650 Descending Boston Center
Wed 04:08:27 PM 42.2583 -73.1750 88° East 479 551 20,500 -1,550 Descending Boston Center
Wed 04:09:27 PM 42.1864 -73.0228 122° Southeast 452 520 19,100 -750 Descending Boston Center
Wed 04:10:27 PM 42.0972 -72.9044 135° Southeast 471 542 19,000 -50 Descending Boston Center
Wed 04:11:27 PM 41.9936 -72.7642 135° Southeast 476 548 19,000 -50 Level Boston Center
Wed 04:12:27 PM 41.9022 -72.6297 132° Southeast 486 559 18,900 -1,450 Descending Boston Center
Wed 04:13:27 PM 41.8397 -72.5069 124° Southeast 462 532 16,100 -2,824 Descending Boston Center
Wed 04:14:26 PM 41.7628 -72.3678 127° Southeast 409 471 13,300 -2,500 Descending Boston Center
Wed 04:15:27 PM 41.6958 -72.2483 127° Southeast 391 450 11,100 -1,140 Descending Boston Center
Wed 04:16:27 PM 41.6394 -72.1483 127° Southeast 372 428 11,000 -350 Descending Boston Center
Wed 04:17:27 PM 41.5786 -72.0406 127° Southeast 367 422 10,400 -1,078 Descending Boston Center
Wed 04:18:35 PM 41.5572 -71.9242 104° East 289 333 8,700 -1,535 Descending Boston Center
Wed 04:19:36 PM 41.6111 -71.8458 47° Northeast 264 304 7,100 -1,500 Descending Boston Center
Wed 04:20:31 PM 41.6586 -71.7928 40° Northeast 257 296 5,800 -1,096 Descending Boston Center
Wed 04:21:31 PM 41.7125 -71.7281 42° Northeast 246 283 5,000 -893 Descending Boston Center
Wed 04:22:32 PM 41.7558 -71.6803 39° Northeast 204 235 4,000 -1,131 Descending Boston Center
Wed 04:23:33 PM 41.7908 -71.6214 51° Northeast 214 246 2,700 -1,279 Descending Boston Center

Login

Don't have an account? Register now (free) for customized features, flight alerts, and more!